Time;durP1;ratioP1;P1;durP2;ratioP2;P2;SDS_P1;SDS_P2;PMS_P1;PMS_P2;Temp;Humidity;BMP_temperature;BMP_pressure;BME280_temperature;BME280_humidity;BME280_pressure;Samples;Min_cycle;Max_cycle;Signal;HPM_P1;HPM_P2
2022/12/07 00:00:10;;;;;;;10.50;6.00;;;;;;;1.02;100.00;96109.39;105573;1298;25350;-90
2022/12/07 00:02:59;;;;;;;7.40;4.50;;;;;;;0.96;100.00;96107.26;105533;1295;22672;-90
2022/12/07 00:05:29;;;;;;;9.20;5.60;;;;;;;0.89;100.00;96102.73;105491;1302;24307;-91
2022/12/07 00:07:58;;;;;;;8.60;5.00;;;;;;;0.84;100.00;96104.77;104505;1303;1324384;-90
2022/12/07 00:10:29;;;;;;;8.30;5.40;;;;;;;0.79;100.00;96105.98;105514;1302;22511;-91
2022/12/07 00:12:58;;;;;;;9.50;5.70;;;;;;;0.76;100.00;96101.80;105536;1302;22467;-91
2022/12/07 00:15:27;;;;;;;9.20;6.00;;;;;;;0.73;100.00;96099.13;105641;1287;22458;-91
2022/12/07 00:17:56;;;;;;;9.10;5.90;;;;;;;0.70;100.00;96100.02;105550;1303;26365;-91
2022/12/07 00:20:27;;;;;;;8.70;5.00;;;;;;;0.67;100.00;96103.88;105573;1295;22536;-91
2022/12/07 00:22:56;;;;;;;7.10;4.20;;;;;;;0.64;100.00;96101.15;105617;1302;22481;-90
2022/12/07 00:25:24;;;;;;;5.90;3.60;;;;;;;0.62;100.00;96095.84;105639;1278;23346;-91
2022/12/07 00:27:56;;;;;;;7.30;3.90;;;;;;;0.61;100.00;96098.55;105585;1302;26502;-91
2022/12/07 00:30:25;;;;;;;5.20;3.30;;;;;;;0.59;100.00;96099.23;105595;1302;22469;-91
2022/12/07 00:32:54;;;;;;;5.90;4.00;;;;;;;0.56;100.00;96101.27;105641;1290;25297;-91
2022/12/07 00:35:22;;;;;;;4.50;3.20;;;;;;;0.55;100.00;96104.56;105618;1302;22561;-90
2022/12/07 00:37:50;;;;;;;5.90;3.40;;;;;;;0.54;100.00;96106.83;105614;1302;26317;-91
2022/12/07 00:40:19;;;;;;;5.30;2.80;;;;;;;0.55;100.00;96105.14;105576;1301;22509;-90
2022/12/07 00:42:51;;;;;;;4.40;2.50;;;;;;;0.60;100.00;96104.58;105580;1287;22919;-90
2022/12/07 00:45:20;;;;;;;2.90;2.20;;;;;;;0.71;100.00;96105.59;105560;1303;24146;-91
2022/12/07 00:47:48;;;;;;;4.00;2.50;;;;;;;0.75;100.00;96101.30;105536;1301;26297;-91
2022/12/07 00:50:19;;;;;;;3.30;2.00;;;;;;;0.77;100.00;96100.91;105529;1303;22483;-90
2022/12/07 00:52:49;;;;;;;4.00;2.50;;;;;;;0.79;100.00;96099.23;105590;1303;22487;-90
2022/12/07 00:55:18;;;;;;;3.50;2.00;;;;;;;0.80;100.00;96100.73;105616;1288;25265;-90
2022/12/07 00:57:46;;;;;;;4.10;2.10;;;;;;;0.84;100.00;96106.23;105493;1302;27942;-90
2022/12/07 01:00:16;;;;;;;2.90;2.10;;;;;;;0.86;100.00;96106.97;105534;1302;22484;-90
2022/12/07 01:02:44;;;;;;;3.10;2.20;;;;;;;0.88;100.00;96104.20;105617;1288;22463;-91
2022/12/07 01:05:13;;;;;;;1.90;1.60;;;;;;;0.87;100.00;96097.59;105633;1302;22465;-91
2022/12/07 01:07:41;;;;;;;3.70;2.40;;;;;;;0.87;100.00;96096.98;105624;1301;85589;-90
2022/12/07 01:10:11;;;;;;;3.30;2.00;;;;;;;0.89;100.00;96095.02;105762;1301;23637;-91
2022/12/07 01:12:40;;;;;;;4.10;1.70;;;;;;;0.89;100.00;96090.95;105806;1293;22493;-90
2022/12/07 01:15:10;;;;;;;3.40;1.70;;;;;;;0.90;100.00;96093.43;105797;1300;22452;-91
2022/12/07 01:17:38;;;;;;;3.00;1.60;;;;;;;0.90;100.00;96091.27;105699;1301;80995;-90
2022/12/07 01:20:12;;;;;;;2.00;1.70;;;;;;;0.87;100.00;96088.48;105889;1300;22502;-91
2022/12/07 01:22:42;;;;;;;2.50;1.50;;;;;;;0.87;100.00;96088.41;105900;1301;22484;-90
2022/12/07 01:25:12;;;;;;;1.90;1.40;;;;;;;0.87;100.00;96084.03;105825;1301;22517;-91
2022/12/07 01:27:40;;;;;;;3.30;1.90;;;;;;;0.88;100.00;96089.21;105813;1302;30948;-90
2022/12/07 01:30:13;;;;;;;2.40;1.40;;;;;;;0.88;100.00;96082.74;105862;1304;22475;-90
2022/12/07 01:32:42;;;;;;;2.20;1.10;;;;;;;0.91;100.00;96081.73;105860;1293;22531;-91
2022/12/07 01:35:10;;;;;;;3.10;1.40;;;;;;;0.93;100.00;96078.48;105865;1301;22575;-90
2022/12/07 01:37:40;;;;;;;2.60;1.30;;;;;;;0.95;100.00;96077.17;105832;1286;24572;-90
2022/12/07 01:40:13;;;;;;;3.20;1.50;;;;;;;0.97;100.00;96075.49;105908;1296;22464;-90
2022/12/07 01:42:41;;;;;;;3.10;1.70;;;;;;;0.98;100.00;96079.86;105846;1288;22470;-90
2022/12/07 01:45:41;;;;;;;2.70;1.90;;;;;;;0.97;100.00;96079.04;105805;1301;22496;-91
2022/12/07 01:48:13;;;;;;;3.00;1.80;;;;;;;0.95;100.00;96077.35;105263;1284;23110;-90
2022/12/07 01:50:42;;;;;;;2.50;1.90;;;;;;;0.93;100.00;96074.64;105594;1290;23153;-90
2022/12/07 01:53:12;;;;;;;2.90;2.10;;;;;;;0.93;100.00;96075.57;105757;1294;22458;-91
2022/12/07 01:55:44;;;;;;;3.90;2.60;;;;;;;0.91;100.00;96076.43;105792;1300;24423;-90
2022/12/07 01:58:16;;;;;;;4.00;2.50;;;;;;;0.89;100.00;96077.23;105763;1300;40727;-90
2022/12/07 02:00:47;;;;;;;2.50;1.70;;;;;;;0.89;100.00;96073.52;105817;1296;22483;-90
2022/12/07 02:03:21;;;;;;;2.10;1.60;;;;;;;0.88;100.00;96072.41;105809;1301;22504;-90
2022/12/07 02:05:51;;;;;;;3.60;2.00;;;;;;;0.89;100.00;96071.74;105715;1295;22471;-91
2022/12/07 02:08:22;;;;;;;2.30;1.70;;;;;;;0.91;100.00;96070.10;105595;1296;22478;-91
2022/12/07 02:10:50;;;;;;;3.30;2.20;;;;;;;0.92;100.00;96073.73;105588;1297;22489;-90
2022/12/07 02:13:22;;;;;;;3.20;1.90;;;;;;;0.92;100.00;96073.41;105526;1295;22515;-91
2022/12/07 02:16:06;;;;;;;3.10;1.90;;;;;;;0.91;100.00;96072.77;105616;1290;25896;-84
2022/12/07 02:18:49;;;;;;;3.10;1.70;;;;;;;0.90;100.00;96074.38;105771;1300;22506;-90
2022/12/07 02:21:31;;;;;;;3.10;2.00;;;;;;;0.87;100.00;96070.73;105813;1297;22466;-91
2022/12/07 02:24:24;;;;;;;2.50;1.50;;;;;;;0.87;100.00;96068.27;105815;1289;22520;-91
2022/12/07 02:27:24;;;;;;;3.20;2.00;;;;;;;0.85;100.00;96064.43;105719;1301;50720;-91
2022/12/07 02:30:00;;;;;;;4.10;1.90;;;;;;;0.85;100.00;96060.90;105826;1293;22483;-91
2022/12/07 02:32:40;;;;;;;3.00;2.00;;;;;;;0.83;100.00;96060.69;105836;1285;22456;-90
2022/12/07 02:35:17;;;;;;;4.30;2.20;;;;;;;0.81;100.00;96059.92;105780;1286;22454;-90
2022/12/07 02:37:54;;;;;;;3.00;2.10;;;;;;;0.80;100.00;96056.64;105699;1301;40630;-90
2022/12/07 02:40:28;;;;;;;3.20;2.10;;;;;;;0.81;100.00;96060.08;105745;1294;22628;-90
2022/12/07 02:43:09;;;;;;;2.90;1.70;;;;;;;0.80;100.00;96058.73;105754;1300;22443;-91
2022/12/07 02:45:41;;;;;;;2.40;1.50;;;;;;;0.78;100.00;96060.25;105788;1300;24333;-89
2022/12/07 02:48:13;;;;;;;2.90;1.40;;;;;;;0.77;100.00;96060.89;105508;1301;24264;-90
2022/12/07 02:50:48;;;;;;;2.50;2.10;;;;;;;0.75;100.00;96060.92;105604;1294;22470;-90
2022/12/07 02:53:39;;;;;;;3.40;1.80;;;;;;;0.74;100.00;96060.74;105515;1294;22503;-89
2022/12/07 02:56:12;;;;;;;;;;;;;;;0.74;100.00;96064.60;105592;1302;26917;-90
2022/12/07 02:58:51;;;;;;;2.20;1.90;;;;;;;0.74;100.00;96065.02;105593;1294;44647;-89
2022/12/07 03:01:38;;;;;;;3.00;2.00;;;;;;;0.75;100.00;96063.69;105626;1297;21995;-91
2022/12/07 03:04:21;;;;;;;2.30;1.80;;;;;;;0.76;100.00;96059.79;105540;1294;22470;-91
2022/12/07 03:07:00;;;;;;;2.50;1.90;;;;;;;0.77;100.00;96059.69;105530;1302;42689;-91
2022/12/07 03:09:37;;;;;;;5.90;1.90;;;;;;;0.78;100.00;96060.75;105660;1281;24132;-91
2022/12/07 03:12:14;;;;;;;3.00;1.70;;;;;;;0.79;100.00;96061.67;105596;1286;22600;-91
2022/12/07 03:14:50;;;;;;;2.70;1.50;;;;;;;0.80;100.00;96058.97;105603;1295;22489;-90
2022/12/07 03:17:24;;;;;;;1.80;1.40;;;;;;;0.81;100.00;96056.59;105552;1303;40786;-90
2022/12/07 03:19:57;;;;;;;3.10;1.70;;;;;;;0.81;100.00;96054.87;105670;1303;22476;-91
2022/12/07 03:22:30;;;;;;;2.60;1.60;;;;;;;0.81;100.00;96051.27;105628;1296;22507;-90
2022/12/07 03:25:01;;;;;;;2.30;1.60;;;;;;;0.81;100.00;96049.91;105579;1288;25434;-91
2022/12/07 03:27:34;;;;;;;2.20;1.40;;;;;;;0.82;100.00;96048.00;105471;1294;108205;-91
2022/12/07 03:30:07;;;;;;;2.30;1.80;;;;;;;0.83;100.00;96045.71;105504;1302;24302;-91
2022/12/07 03:32:44;;;;;;;2.10;1.00;;;;;;;0.82;100.00;96038.98;105671;1302;22472;-89
2022/12/07 03:35:18;;;;;;;2.40;1.40;;;;;;;0.84;100.00;96042.99;105606;1286;25322;-91
2022/12/07 03:37:51;;;;;;;2.50;1.50;;;;;;;0.85;100.00;96044.45;105647;1288;26956;-91
2022/12/07 03:40:26;;;;;;;2.00;1.80;;;;;;;0.87;100.00;96040.55;105629;1294;22548;-91
2022/12/07 03:42:59;;;;;;;2.20;1.70;;;;;;;0.88;100.00;96041.73;105572;1297;22523;-91
2022/12/07 03:45:38;;;;;;;1.60;1.40;;;;;;;0.89;100.00;96041.06;105638;1303;22513;-91
2022/12/07 03:48:20;;;;;;;2.40;1.80;;;;;;;0.90;100.00;96039.36;105496;1302;27979;-91
2022/12/07 03:50:54;;;;;;;2.60;1.90;;;;;;;0.91;100.00;96035.88;105466;1302;22460;-91
2022/12/07 03:53:31;;;;;;;2.30;1.80;;;;;;;0.94;100.00;96038.64;105509;1301;22520;-91
2022/12/07 03:56:01;;;;;;;2.10;1.60;;;;;;;0.96;100.00;96035.34;105555;1279;36140;-90
2022/12/07 03:58:32;;;;;;;1.80;1.50;;;;;;;0.98;100.00;96031.77;105694;1279;33294;-90
2022/12/07 04:01:00;;;;;;;2.50;1.70;;;;;;;0.98;100.00;96031.68;105841;1301;22512;-91
2022/12/07 04:03:29;;;;;;;2.50;1.50;;;;;;;1.01;100.00;96028.40;105770;1296;22424;-91
2022/12/07 04:05:58;;;;;;;2.70;1.70;;;;;;;1.02;100.00;96027.33;105745;1301;22480;-92
2022/12/07 04:08:27;;;;;;;2.00;1.50;;;;;;;1.03;100.00;96028.02;105753;1301;25486;-92
2022/12/07 04:10:57;;;;;;;3.50;1.90;;;;;;;1.03;100.00;96025.58;105817;1301;22593;-91
2022/12/07 04:13:26;;;;;;;2.20;1.60;;;;;;;1.02;100.00;96025.29;105834;1301;22601;-91
2022/12/07 04:15:57;;;;;;;1.60;1.40;;;;;;;1.02;100.00;96020.07;105833;1292;24285;-90
2022/12/07 04:18:26;;;;;;;2.00;1.30;;;;;;;1.03;100.00;96015.09;105840;1301;22516;-91
2022/12/07 04:20:57;;;;;;;2.00;1.40;;;;;;;1.09;100.00;96012.26;105862;1295;22463;-92
2022/12/07 04:23:25;;;;;;;1.50;1.40;;;;;;;1.17;100.00;96013.20;105832;1292;22461;-90
2022/12/07 04:25:54;;;;;;;1.90;1.70;;;;;;;1.20;100.00;96010.75;105861;1285;26148;-90
2022/12/07 04:28:22;;;;;;;1.40;1.10;;;;;;;1.23;100.00;96010.83;105793;1301;54099;-91
2022/12/07 04:30:57;;;;;;;1.70;1.40;;;;;;;1.26;100.00;96016.01;105867;1299;22536;-90
2022/12/07 04:33:26;;;;;;;1.80;1.40;;;;;;;1.29;100.00;96013.48;105860;1301;22475;-90
2022/12/07 04:35:57;;;;;;;2.10;1.60;;;;;;;1.30;100.00;96011.77;105822;1300;27753;-91
2022/12/07 04:38:26;;;;;;;1.90;1.30;;;;;;;1.31;100.00;96009.33;105674;1288;38716;-88
2022/12/07 04:40:58;;;;;;;1.10;1.00;;;;;;;1.34;100.00;96008.65;105746;1302;22583;-91
2022/12/07 04:43:26;;;;;;;2.10;1.40;;;;;;;1.39;100.00;96009.30;105841;1300;24246;-92
2022/12/07 04:45:55;;;;;;;3.10;1.30;;;;;;;1.41;100.00;96009.88;105859;1300;27338;-91
2022/12/07 04:48:23;;;;;;;2.40;2.00;;;;;;;1.42;100.00;96012.71;105729;1301;46614;-92
2022/12/07 04:50:52;;;;;;;2.10;1.50;;;;;;;1.41;100.00;96008.67;105826;1301;22463;-90
2022/12/07 04:53:25;;;;;;;3.40;1.40;;;;;;;1.40;100.00;96004.05;105883;1295;22528;-91
2022/12/07 04:55:53;;;;;;;3.30;1.50;;;;;;;1.39;100.00;96002.93;105833;1301;23379;-90
2022/12/07 04:58:21;;;;;;;1.70;1.10;;;;;;;1.38;100.00;96003.70;105839;1278;22465;-91
2022/12/07 05:00:50;;;;;;;3.20;2.30;;;;;;;1.37;100.00;96003.92;105854;1288;22481;-91
2022/12/07 05:03:19;;;;;;;2.30;2.00;;;;;;;1.35;100.00;96004.54;105888;1301;23878;-91
2022/12/07 05:05:48;;;;;;;3.20;2.60;;;;;;;1.32;100.00;96001.98;105893;1301;22520;-91
2022/12/07 05:08:16;;;;;;;2.70;2.20;;;;;;;1.30;100.00;96000.75;105635;1303;25713;-91
2022/12/07 05:10:48;;;;;;;3.00;2.10;;;;;;;1.29;100.00;96001.87;105652;1300;23768;-91
2022/12/07 05:13:19;;;;;;;2.00;1.60;;;;;;;1.27;100.00;96003.83;105740;1303;22489;-92
2022/12/07 05:15:49;;;;;;;2.80;2.20;;;;;;;1.27;100.00;96003.82;105706;1302;22508;-92
2022/12/07 05:18:17;;;;;;;6.90;3.00;;;;;;;1.28;100.00;96003.26;105668;1302;40371;-91
2022/12/07 05:20:49;;;;;;;4.20;2.40;;;;;;;1.28;100.00;96003.21;105728;1303;22467;-92
2022/12/07 05:23:17;;;;;;;8.50;4.10;;;;;;;1.30;100.00;96005.45;105610;1302;22602;-92
2022/12/07 05:25:49;;;;;;;8.70;3.90;;;;;;;1.31;100.00;96008.02;105573;1302;25505;-92
2022/12/07 05:28:18;;;;;;;2.70;2.30;;;;;;;1.30;100.00;96010.98;105796;1304;34062;-91
2022/12/07 05:30:52;;;;;;;5.50;3.80;;;;;;;1.32;100.00;96013.16;105872;1282;25253;-93
2022/12/07 05:33:20;;;;;;;6.10;3.70;;;;;;;1.34;100.00;96008.59;105800;1301;22460;-91
2022/12/07 05:35:51;;;;;;;4.40;3.00;;;;;;;1.34;100.00;96013.71;105856;1301;22473;-91
2022/12/07 05:38:19;;;;;;;8.30;3.30;;;;;;;1.33;100.00;96013.12;105804;1279;23030;-90
2022/12/07 05:40:48;;;;;;;4.50;3.20;;;;;;;1.34;100.00;96012.56;105779;1301;22470;-91
2022/12/07 05:43:20;;;;;;;7.10;3.60;;;;;;;1.36;100.00;96018.33;105803;1301;22493;-92
2022/12/07 05:45:50;;;;;;;14.50;6.90;;;;;;;1.35;100.00;96012.89;105815;1301;22469;-91
2022/12/07 05:48:19;;;;;;;9.60;4.80;;;;;;;1.35;100.00;96015.39;105711;1296;23477;-91
2022/12/07 05:50:49;;;;;;;13.20;5.90;;;;;;;1.32;100.00;96016.61;105753;1301;22489;-91
2022/12/07 05:53:18;;;;;;;4.70;3.20;;;;;;;1.31;100.00;96019.50;105821;1300;22447;-91
2022/12/07 05:55:48;;;;;;;3.70;2.80;;;;;;;1.26;100.00;96027.25;105788;1295;22447;-91
2022/12/07 06:01:06;;;;;;;33.10;15.00;;;;;;;1.18;100.00;96029.04;105785;1301;22478;-91
2022/12/07 06:03:35;;;;;;;23.70;10.60;;;;;;;1.15;100.00;96030.40;105744;1301;22525;-91
2022/12/07 06:06:07;;;;;;;26.60;14.90;;;;;;;1.11;100.00;96030.58;105726;1301;29848;-89
2022/12/07 06:08:38;;;;;;;14.30;9.20;;;;;;;1.09;100.00;96029.42;105750;1297;29482;-91
2022/12/07 06:14:10;;;;;;;3.40;3.00;;;;;;;1.07;100.00;96033.27;105343;1299;24256;-91
2022/12/07 06:16:39;;;;;;;4.90;3.70;;;;;;;1.06;100.00;96034.81;105213;1307;64324;-91
2022/12/07 06:19:07;;;;;;;4.80;3.20;;;;;;;1.06;100.00;96040.23;105486;1304;25212;-91
2022/12/07 06:21:36;;;;;;;3.80;3.00;;;;;;;1.07;100.00;96036.92;105750;1295;22530;-90
2022/12/07 06:24:09;;;;;;;3.40;3.10;;;;;;;1.08;100.00;96037.03;105792;1300;24429;-91
2022/12/07 06:26:37;;;;;;;3.50;3.10;;;;;;;1.05;100.00;96034.59;105706;1299;24255;-90
2022/12/07 06:29:06;;;;;;;3.40;2.60;;;;;;;1.04;100.00;96036.77;105788;1301;22471;-91
2022/12/07 06:31:35;;;;;;;2.80;2.30;;;;;;;1.04;100.00;96040.00;105760;1292;22466;-90
2022/12/07 06:34:05;;;;;;;4.20;3.40;;;;;;;1.05;100.00;96037.14;105731;1302;22631;-90
2022/12/07 06:36:34;;;;;;;4.00;3.40;;;;;;;1.05;100.00;96038.02;105738;1295;28532;-91
2022/12/07 06:39:07;;;;;;;3.00;2.60;;;;;;;1.03;100.00;96038.63;105786;1294;22556;-91
2022/12/07 06:41:36;;;;;;;3.90;2.80;;;;;;;1.04;100.00;96039.84;105849;1300;24264;-91
2022/12/07 06:44:05;;;;;;;5.50;3.00;;;;;;;1.05;100.00;96043.88;105820;1301;22465;-91
2022/12/07 06:46:35;;;;;;;3.20;2.90;;;;;;;1.07;100.00;96045.27;105728;1286;24116;-91
2022/12/07 06:49:04;;;;;;;2.80;2.20;;;;;;;1.09;100.00;96046.52;105784;1286;22498;-91
2022/12/07 06:51:35;;;;;;;4.40;2.90;;;;;;;1.10;100.00;96044.73;105789;1292;22512;-91
2022/12/07 06:54:06;;;;;;;4.90;3.50;;;;;;;1.08;100.00;96047.95;105828;1301;23165;-90
2022/12/07 06:56:35;;;;;;;5.40;3.30;;;;;;;1.07;100.00;96045.59;105713;1304;37829;-90
2022/12/07 06:59:05;;;;;;;3.70;3.30;;;;;;;1.09;100.00;96047.17;105778;1286;22451;-90
2022/12/07 07:01:34;;;;;;;3.40;2.80;;;;;;;1.08;100.00;96048.27;105813;1286;22463;-90
2022/12/07 07:04:05;;;;;;;3.60;3.10;;;;;;;1.09;100.00;96046.71;105814;1301;25470;-91
2022/12/07 07:06:34;;;;;;;4.60;2.90;;;;;;;1.10;100.00;96045.42;105803;1300;39767;-90
2022/12/07 07:09:03;;;;;;;3.70;2.60;;;;;;;1.12;100.00;96051.48;105847;1279;23073;-91
2022/12/07 07:11:31;;;;;;;4.70;3.30;;;;;;;1.13;100.00;96051.15;105844;1279;22541;-91
2022/12/07 07:14:05;;;;;;;4.70;3.20;;;;;;;1.14;100.00;96050.13;105849;1301;22506;-91
2022/12/07 07:16:33;;;;;;;4.00;3.20;;;;;;;1.15;100.00;96053.48;105745;1295;65768;-91
2022/12/07 07:19:05;;;;;;;3.40;2.60;;;;;;;1.16;100.00;96054.90;105899;1301;24323;-91
2022/12/07 07:21:33;;;;;;;3.70;3.00;;;;;;;1.16;100.00;96057.67;105864;1275;22473;-91
2022/12/07 07:24:02;;;;;;;3.70;2.90;;;;;;;1.17;100.00;96056.23;105836;1301;22971;-92
2022/12/07 07:26:32;;;;;;;3.70;3.00;;;;;;;1.19;100.00;96059.54;105707;1294;84995;-90
2022/12/07 07:29:00;;;;;;;3.50;2.00;;;;;;;1.20;100.00;96053.30;105825;1301;22475;-90
2022/12/07 07:31:29;;;;;;;2.80;2.30;;;;;;;1.23;100.00;96053.61;105885;1294;22475;-89
2022/12/07 07:33:57;;;;;;;3.00;2.40;;;;;;;1.24;100.00;96059.42;105842;1285;24417;-89
2022/12/07 07:36:25;;;;;;;3.70;2.80;;;;;;;1.25;100.00;96056.15;105727;1301;26862;-90
2022/12/07 07:38:55;;;;;;;4.00;2.80;;;;;;;1.27;100.00;96057.65;105566;1302;23243;-89
2022/12/07 07:41:26;;;;;;;3.20;2.30;;;;;;;1.27;100.00;96060.06;105604;1287;22482;-89
2022/12/07 07:43:54;;;;;;;3.60;2.80;;;;;;;1.28;100.00;96056.52;105693;1297;22466;-90
2022/12/07 07:46:25;;;;;;;3.00;1.90;;;;;;;1.28;100.00;96058.04;105658;1301;82554;-90
2022/12/07 07:48:56;;;;;;;4.30;2.70;;;;;;;1.28;100.00;96054.98;105553;1288;71851;-89
2022/12/07 07:51:24;;;;;;;6.30;4.00;;;;;;;1.29;100.00;96058.23;105684;1301;22448;-89
2022/12/07 07:53:56;;;;;;;8.70;4.60;;;;;;;1.28;100.00;96058.85;105746;1288;22478;-89
2022/12/07 07:56:25;;;;;;;4.80;3.30;;;;;;;1.27;100.00;96062.27;105712;1287;22515;-89
2022/12/07 07:58:55;;;;;;;8.80;5.50;;;;;;;1.26;100.00;96068.38;105709;1288;25006;-89
2022/12/07 08:01:24;;;;;;;4.00;2.80;;;;;;;1.25;100.00;96064.81;105731;1288;22463;-90
2022/12/07 08:03:55;;;;;;;5.60;3.40;;;;;;;1.25;100.00;96066.44;105675;1294;22557;-90
2022/12/07 08:06:24;;;;;;;5.60;3.00;;;;;;;1.24;100.00;96069.20;105741;1303;39928;-90
2022/12/07 08:08:55;;;;;;;3.80;2.50;;;;;;;1.23;100.00;96069.90;106298;1303;37849;-90
2022/12/07 08:11:26;;;;;;;6.00;3.40;;;;;;;1.21;100.00;96069.29;105645;1302;25340;-90
2022/12/07 08:13:55;;;;;;;3.50;2.10;;;;;;;1.21;100.00;96075.24;105662;1297;22467;-90
2022/12/07 08:16:24;;;;;;;3.50;3.00;;;;;;;1.22;100.00;96076.26;105583;1294;28131;-91
2022/12/07 08:18:52;;;;;;;4.90;2.60;;;;;;;1.25;100.00;96077.29;105613;1303;22452;-90
2022/12/07 08:21:21;;;;;;;3.60;2.70;;;;;;;1.27;100.00;96080.16;105493;1300;22532;-91
2022/12/07 08:23:49;;;;;;;4.00;2.30;;;;;;;1.31;100.00;96077.73;105645;1279;24410;-91
2022/12/07 08:26:18;;;;;;;4.80;2.30;;;;;;;1.33;100.00;96086.54;105549;1302;50142;-90
2022/12/07 08:28:46;;;;;;;3.60;2.10;;;;;;;1.33;100.00;96075.27;105553;1294;25457;-90
2022/12/07 08:31:18;;;;;;;5.90;3.40;;;;;;;1.33;100.00;96078.71;105539;1302;22468;-91
2022/12/07 08:33:48;;;;;;;5.30;3.80;;;;;;;1.34;100.00;96082.54;105678;1302;22469;-90
2022/12/07 08:36:17;;;;;;;8.70;4.80;;;;;;;1.34;100.00;96086.15;105624;1287;26652;-91
2022/12/07 08:38:49;;;;;;;5.80;3.60;;;;;;;1.34;100.00;96085.52;105652;1288;22482;-90
2022/12/07 08:41:18;;;;;;;7.40;3.80;;;;;;;1.34;100.00;96090.70;105722;1281;23249;-90
2022/12/07 08:43:46;;;;;;;5.80;2.30;;;;;;;1.35;100.00;96088.10;105696;1287;23172;-90
2022/12/07 08:46:23;;;;;;;3.60;2.10;;;;;;;1.35;100.00;96092.90;105602;1278;23226;-90
2022/12/07 08:48:56;;;;;;;4.80;3.20;;;;;;;1.36;100.00;96098.08;104059;1297;2082856;-90
2022/12/07 08:51:25;;;;;;;5.90;3.40;;;;;;;1.36;100.00;96094.59;105658;1303;22522;-89
2022/12/07 08:53:58;;;;;;;3.40;2.20;;;;;;;1.36;100.00;96091.77;105556;1302;24765;-90
2022/12/07 08:56:28;;;;;;;3.80;2.80;;;;;;;1.38;100.00;96090.55;105590;1302;26025;-90
2022/12/07 08:58:59;;;;;;;7.40;2.90;;;;;;;1.42;100.00;96095.91;105623;1288;22476;-90
2022/12/07 09:01:28;;;;;;;4.60;3.60;;;;;;;1.45;100.00;96101.98;105634;1303;22539;-90
2022/12/07 09:03:56;;;;;;;3.50;2.40;;;;;;;1.49;100.00;96095.88;105665;1303;22599;-90
2022/12/07 09:06:28;;;;;;;5.20;3.40;;;;;;;1.52;100.00;96097.29;105546;1302;22465;-90
2022/12/07 09:09:00;;;;;;;4.90;2.50;;;;;;;1.54;100.00;96094.91;105594;1302;27750;-91
2022/12/07 09:11:29;;;;;;;4.60;2.70;;;;;;;1.55;100.00;96097.16;105614;1288;22485;-90
2022/12/07 09:14:00;;;;;;;4.40;2.40;;;;;;;1.53;100.00;96099.55;105730;1297;22470;-90
2022/12/07 09:16:29;;;;;;;5.80;3.00;;;;;;;1.50;100.00;96098.10;105689;1303;22500;-90
2022/12/07 09:18:57;;;;;;;5.70;3.10;;;;;;;1.48;100.00;96096.54;105887;1301;22506;-90
2022/12/07 09:21:26;;;;;;;3.20;2.80;;;;;;;1.49;100.00;96093.11;105823;1301;22479;-90
2022/12/07 09:23:56;;;;;;;3.20;2.10;;;;;;;1.51;100.00;96092.52;105755;1301;22511;-91
2022/12/07 09:26:26;;;;;;;;;;;;;;;1.50;100.00;96091.35;105719;1301;23609;-90
2022/12/07 09:28:56;;;;;;;4.70;2.60;;;;;;;1.46;100.00;96089.79;105752;1284;25199;-90
2022/12/07 09:31:24;;;;;;;4.50;3.30;;;;;;;1.42;100.00;96092.74;105790;1301;22608;-90
2022/12/07 09:33:56;;;;;;;3.80;2.60;;;;;;;1.41;100.00;96092.88;105859;1299;22461;-90
2022/12/07 09:36:30;;;;;;;5.50;3.40;;;;;;;1.40;100.00;96093.84;105778;1302;26325;-90
2022/12/07 09:38:58;;;;;;;6.50;3.90;;;;;;;1.40;100.00;96092.00;105808;1292;22463;-89
2022/12/07 09:41:30;;;;;;;4.60;3.30;;;;;;;1.40;100.00;96091.16;105828;1296;22480;-90
2022/12/07 09:44:07;;;;;;;5.20;3.40;;;;;;;1.40;100.00;96093.05;105825;1301;22484;-90
2022/12/07 09:46:38;;;;;;;5.40;3.60;;;;;;;1.42;100.00;96092.11;105749;1301;25305;-90
2022/12/07 09:49:13;;;;;;;3.60;2.60;;;;;;;1.42;100.00;96093.99;105869;1279;22458;-91
2022/12/07 09:51:41;;;;;;;2.90;2.30;;;;;;;1.41;100.00;96089.89;105875;1288;23153;-90
2022/12/07 09:54:15;;;;;;;4.00;2.40;;;;;;;1.40;100.00;96091.89;105869;1301;22481;-90
2022/12/07 09:56:45;;;;;;;8.70;4.70;;;;;;;1.39;100.00;96094.55;105775;1289;25360;-90
2022/12/07 09:59:17;;;;;;;4.60;3.40;;;;;;;1.38;100.00;96094.68;105892;1301;25309;-89
2022/12/07 10:01:50;;;;;;;4.30;3.10;;;;;;;1.40;100.00;96093.61;105878;1301;22474;-90
2022/12/07 10:04:21;;;;;;;3.10;2.20;;;;;;;1.41;100.00;96091.78;105814;1301;22462;-90
2022/12/07 10:06:51;;;;;;;3.30;2.10;;;;;;;1.44;100.00;96094.34;105813;1286;24159;-91
2022/12/07 10:09:21;;;;;;;2.90;2.30;;;;;;;1.43;100.00;96088.22;105824;1295;22498;-90
2022/12/07 10:12:08;;;;;;;5.30;3.00;;;;;;;1.43;100.00;96092.33;105859;1296;22457;-89
2022/12/07 10:14:38;;;;;;;4.80;2.60;;;;;;;1.46;100.00;96092.08;105756;1301;22536;-89
2022/12/07 10:17:29;;;;;;;4.00;2.70;;;;;;;1.47;100.00;96092.51;105668;1301;59932;-90
2022/12/07 10:20:17;;;;;;;4.90;1.90;;;;;;;1.46;100.00;96084.61;105758;1298;22523;-90
2022/12/07 10:23:04;;;;;;;4.10;3.00;;;;;;;1.43;100.00;96084.48;105831;1293;23675;-90
2022/12/07 10:25:35;;;;;;;6.70;3.40;;;;;;;1.43;100.00;96081.27;105791;1301;22468;-90
2022/12/07 10:28:13;;;;;;;3.70;2.70;;;;;;;1.47;100.00;96078.98;105459;1301;45365;-90
2022/12/07 10:30:51;;;;;;;4.10;2.70;;;;;;;1.51;100.00;96076.54;105662;1295;22674;-90
2022/12/07 10:33:33;;;;;;;3.90;2.30;;;;;;;1.53;100.00;96077.71;105603;1295;22489;-90
2022/12/07 10:36:16;;;;;;;2.00;1.60;;;;;;;1.54;100.00;96073.34;105631;1288;22465;-90
2022/12/07 10:38:49;;;;;;;3.40;2.10;;;;;;;1.55;100.00;96068.19;105782;1295;22476;-90
2022/12/07 10:41:19;;;;;;;2.70;1.50;;;;;;;1.58;100.00;96067.64;105812;1301;24344;-90
2022/12/07 10:43:53;;;;;;;3.50;1.90;;;;;;;1.64;100.00;96064.65;105824;1292;22460;-91
2022/12/07 10:46:45;;;;;;;2.50;2.20;;;;;;;1.67;100.00;96068.10;105729;1301;47117;-90
2022/12/07 10:49:45;;;;;;;2.40;1.60;;;;;;;1.70;100.00;96070.00;105784;1301;22628;-90
2022/12/07 10:52:25;;;;;;;2.00;1.50;;;;;;;1.69;99.98;96066.67;105727;1301;23971;-91
2022/12/07 10:55:09;;;;;;;2.80;2.00;;;;;;;1.67;99.59;96064.38;105760;1301;23129;-90
2022/12/07 10:57:52;;;;;;;3.30;2.50;;;;;;;1.65;99.63;96064.77;105696;1295;24296;-89
2022/12/07 11:00:24;;;;;;;2.30;1.90;;;;;;;1.66;99.68;96062.75;105756;1301;23618;-90
2022/12/07 11:03:31;;;;;;;2.30;1.60;;;;;;;1.68;99.97;96061.63;105779;1301;24495;-91
2022/12/07 11:06:11;;;;;;;3.90;2.90;;;;;;;1.69;100.00;96051.64;105780;1282;24761;-91
2022/12/07 11:08:55;;;;;;;4.50;3.00;;;;;;;1.72;100.00;96046.23;105800;1277;22477;-91
2022/12/07 11:11:33;;;;;;;5.00;3.10;;;;;;;1.72;100.00;96039.40;105802;1301;25950;-91
2022/12/07 11:14:17;;;;;;;5.50;3.00;;;;;;;1.71;100.00;96041.27;105792;1301;22649;-90
2022/12/07 11:16:55;;;;;;;3.40;2.00;;;;;;;1.67;100.00;96038.93;105623;1302;32227;-89
2022/12/07 11:19:51;;;;;;;2.80;2.30;;;;;;;1.66;100.00;96038.52;105706;1300;22490;-90
2022/12/07 11:22:26;;;;;;;2.90;2.10;;;;;;;1.65;100.00;96035.98;105704;1288;22508;-90
2022/12/07 11:25:03;;;;;;;3.30;1.60;;;;;;;1.65;99.74;96034.30;105701;1303;25218;-89
2022/12/07 11:27:38;;;;;;;3.80;2.30;;;;;;;1.67;99.56;96029.84;105650;1296;22472;-90
2022/12/07 11:30:17;;;;;;;3.90;2.60;;;;;;;1.68;99.58;96031.10;105707;1298;22478;-90
2022/12/07 11:33:15;;;;;;;3.70;2.60;;;;;;;1.68;99.46;96033.88;105701;1301;22514;-89
2022/12/07 11:35:53;;;;;;;4.40;2.80;;;;;;;1.66;99.49;96032.27;105581;1299;22548;-91
2022/12/07 11:38:26;;;;;;;4.20;2.70;;;;;;;1.64;99.28;96032.98;105813;1297;28403;-90
2022/12/07 11:41:12;;;;;;;5.20;2.90;;;;;;;1.62;99.15;96033.42;105893;1301;23579;-90
2022/12/07 11:43:55;;;;;;;3.70;2.60;;;;;;;1.61;99.06;96035.02;105797;1301;22507;-91
2022/12/07 11:46:28;;;;;;;4.60;2.70;;;;;;;1.60;98.94;96028.69;105759;1301;25928;-90
2022/12/07 11:49:08;;;;;;;4.90;2.50;;;;;;;1.59;98.54;96030.05;105859;1288;26422;-91
2022/12/07 11:51:42;;;;;;;4.70;2.80;;;;;;;1.59;98.22;96033.11;105908;1301;22459;-89
2022/12/07 11:54:19;;;;;;;4.80;2.60;;;;;;;1.59;98.32;96030.77;105875;1292;25203;-90
2022/12/07 11:56:51;;;;;;;5.50;3.80;;;;;;;1.58;98.39;96029.98;105783;1301;68447;-90